Aviation Digital Data Service (ADDS)

Output produced by METARs form (1725 UTC 21 September 2019)
found at http://aviationweather.gov/metar/data/
 
KCXO 211720Z 2118/2218 11008KT P6SM SCT025 
     FM220900 VRB03KT P6SM BKN030 
     FM221200 VRB03KT P6SM BKN010 
     FM221600 14007KT P6SM BKN025